Time;durP1;ratioP1;P1;durP2;ratioP2;P2;SDS_P1;SDS_P2;PMS_P1;PMS_P2;Temp;Humidity;BMP_temperature;BMP_pressure;BME280_temperature;BME280_humidity;BME280_pressure;Samples;Min_cycle;Max_cycle;Signal;HPM_P1;HPM_P2
2022/05/31 00:01:59;;;;;;;5.27;4.20;;;10.80;99.90;;;;;;5072138;28;20202;-67
2022/05/31 00:04:26;;;;;;;5.70;4.10;;;10.80;99.90;;;;;;5072721;28;20209;-67
2022/05/31 00:06:53;;;;;;;5.00;4.07;;;10.80;99.90;;;;;;5072278;28;20299;-67
2022/05/31 00:09:21;;;;;;;10.93;4.07;;;10.80;99.90;;;;;;5071202;28;20607;-67
2022/05/31 00:11:48;;;;;;;7.47;4.30;;;10.80;99.90;;;;;;5072013;28;20633;-67
2022/05/31 00:14:16;;;;;;;4.50;3.63;;;10.70;99.90;;;;;;5070615;28;20580;-67
2022/05/31 00:16:45;;;;;;;8.93;4.40;;;10.70;99.90;;;;;;5081259;28;20245;-67
2022/05/31 00:19:13;;;;;;;4.10;3.37;;;10.70;99.90;;;;;;5072429;28;20312;-67
2022/05/31 00:21:42;;;;;;;5.53;4.47;;;10.70;99.90;;;;;;5075000;28;20205;-67
2022/05/31 00:24:11;;;;;;;6.13;4.00;;;10.70;99.90;;;;;;5075267;28;20211;-67
2022/05/31 00:26:39;;;;;;;3.93;3.63;;;10.70;99.90;;;;;;5069164;28;20263;-67
2022/05/31 00:29:06;;;;;;;5.67;4.30;;;10.70;99.90;;;;;;5070947;28;20225;-68
2022/05/31 00:31:34;;;;;;;5.33;4.23;;;10.70;99.90;;;;;;5080725;28;20206;-67
2022/05/31 00:34:03;;;;;;;5.70;4.63;;;10.70;99.90;;;;;;5081896;28;20749;-68
2022/05/31 00:36:30;;;;;;;4.27;3.63;;;10.70;99.90;;;;;;5079011;28;20225;-68
2022/05/31 00:38:57;;;;;;;6.07;4.33;;;10.70;99.90;;;;;;5080671;28;20256;-67
2022/05/31 00:41:24;;;;;;;4.80;4.30;;;10.70;99.90;;;;;;5076835;28;20255;-68
2022/05/31 00:43:52;;;;;;;6.13;4.90;;;10.70;99.90;;;;;;5075304;28;20258;-68
2022/05/31 00:46:22;;;;;;;5.40;4.30;;;10.70;99.90;;;;;;5071337;28;20201;-67
2022/05/31 00:48:55;;;;;;;11.53;4.67;;;10.70;99.90;;;;;;5070376;28;20292;-67
2022/05/31 00:51:28;;;;;;;6.27;4.20;;;10.70;99.90;;;;;;5075870;28;20201;-68
2022/05/31 00:53:59;;;;;;;6.77;4.63;;;10.70;99.90;;;;;;5063927;28;20224;-68
2022/05/31 00:56:28;;;;;;;5.53;4.90;;;10.70;99.90;;;;;;5074948;28;20209;-67
2022/05/31 00:59:01;;;;;;;5.27;4.40;;;10.70;99.90;;;;;;5075755;28;20225;-68
2022/05/31 01:01:31;;;;;;;7.23;4.67;;;10.70;99.90;;;;;;5075567;28;20561;-67
2022/05/31 01:03:59;;;;;;;6.20;4.43;;;10.60;99.90;;;;;;5068790;28;20708;-67
2022/05/31 01:06:28;;;;;;;4.57;4.17;;;10.70;99.90;;;;;;5074390;28;20212;-68
2022/05/31 01:08:57;;;;;;;6.73;4.97;;;10.60;99.90;;;;;;5070930;28;20292;-68
2022/05/31 01:11:28;;;;;;;6.60;4.57;;;10.60;99.90;;;;;;5074855;28;20710;-67
2022/05/31 01:13:55;;;;;;;5.23;4.70;;;10.60;99.90;;;;;;5075794;28;20205;-68
2022/05/31 01:16:22;;;;;;;5.27;4.60;;;10.70;99.90;;;;;;5072415;28;20233;-67
2022/05/31 01:18:49;;;;;;;6.47;4.93;;;10.60;99.90;;;;;;5085745;28;20214;-68
2022/05/31 01:21:17;;;;;;;5.20;4.70;;;10.50;99.90;;;;;;5084809;28;20672;-68
2022/05/31 01:23:54;;;;;;;5.20;4.70;;;10.50;99.90;;;;;;5070121;28;20208;-68
2022/05/31 01:26:30;;;;;;;5.73;5.13;;;10.50;99.90;;;;;;5071399;28;20201;-68
2022/05/31 01:29:10;;;;;;;5.13;4.63;;;10.50;99.90;;;;;;5076897;28;20240;-67
2022/05/31 01:31:41;;;;;;;7.73;5.27;;;10.50;99.90;;;;;;5082541;28;20205;-67
2022/05/31 01:34:13;;;;;;;5.20;4.70;;;10.50;99.90;;;;;;5066296;28;20638;-68
2022/05/31 01:36:46;;;;;;;5.60;5.00;;;10.50;99.90;;;;;;5071437;28;20197;-68
2022/05/31 01:39:19;;;;;;;7.47;5.57;;;10.50;99.90;;;;;;5069157;28;20221;-68
2022/05/31 01:41:54;;;;;;;8.53;5.20;;;10.40;99.90;;;;;;5073594;28;20296;-67
2022/05/31 01:44:23;;;;;;;6.27;5.00;;;10.40;99.90;;;;;;5061539;28;20292;-67
2022/05/31 01:46:52;;;;;;;5.83;5.30;;;10.40;99.90;;;;;;5072442;28;20206;-67
2022/05/31 01:49:20;;;;;;;8.00;5.23;;;10.40;99.90;;;;;;5073923;28;20279;-67
2022/05/31 01:51:49;;;;;;;7.03;5.27;;;10.40;99.90;;;;;;5070160;28;20250;-68
2022/05/31 01:54:17;;;;;;;7.70;5.70;;;10.40;99.90;;;;;;5073059;28;20242;-67
2022/05/31 01:56:46;;;;;;;6.80;6.20;;;10.30;99.90;;;;;;5075004;28;20277;-69
2022/05/31 01:59:14;;;;;;;5.77;5.17;;;10.30;99.90;;;;;;5078005;28;20216;-67
2022/05/31 02:01:42;;;;;;;8.23;5.70;;;10.30;99.90;;;;;;5077269;28;20214;-68
2022/05/31 02:04:10;;;;;;;6.67;5.23;;;10.30;99.90;;;;;;5072626;28;20292;-68
2022/05/31 02:06:39;;;;;;;7.17;5.60;;;10.30;99.90;;;;;;5074540;28;20630;-68
2022/05/31 02:09:11;;;;;;;5.90;5.20;;;10.30;99.90;;;;;;5074426;28;20205;-67
2022/05/31 02:11:39;;;;;;;5.70;4.90;;;10.30;99.90;;;;;;5072036;28;20215;-68
2022/05/31 02:14:07;;;;;;;5.80;5.20;;;10.30;99.90;;;;;;5074176;28;20284;-69
2022/05/31 02:16:34;;;;;;;6.20;5.60;;;10.30;99.90;;;;;;5072484;28;20241;-67
2022/05/31 02:19:23;;;;;;;7.67;5.73;;;10.30;99.90;;;;;;5073410;28;20225;-68
2022/05/31 02:21:50;;;;;;;9.53;5.73;;;10.30;99.90;;;;;;5071310;28;20262;-67
2022/05/31 02:24:19;;;;;;;5.93;5.33;;;10.30;99.90;;;;;;5067086;28;20323;-68
2022/05/31 02:26:46;;;;;;;6.73;5.23;;;10.20;99.90;;;;;;5083183;28;20205;-68
2022/05/31 02:29:17;;;;;;;7.00;5.20;;;10.30;99.90;;;;;;5073650;28;20221;-68
2022/05/31 02:31:44;;;;;;;7.77;5.77;;;10.40;99.90;;;;;;5073959;28;20240;-67
2022/05/31 02:34:12;;;;;;;8.50;5.30;;;10.30;99.90;;;;;;5065402;28;20198;-67
2022/05/31 02:36:39;;;;;;;8.93;5.10;;;10.30;99.90;;;;;;5073182;28;20205;-68
2022/05/31 02:39:07;;;;;;;5.93;5.33;;;10.30;99.90;;;;;;5074000;28;20221;-67
2022/05/31 02:41:35;;;;;;;7.93;5.00;;;10.30;99.90;;;;;;5073223;28;20216;-68
2022/05/31 02:44:02;;;;;;;6.43;5.37;;;10.30;99.90;;;;;;5073214;28;20205;-68
2022/05/31 02:46:29;;;;;;;6.50;5.30;;;10.30;99.90;;;;;;5073839;28;20572;-67
2022/05/31 02:48:56;;;;;;;6.00;5.23;;;10.30;99.90;;;;;;5077245;28;20204;-67
2022/05/31 02:51:23;;;;;;;7.77;5.20;;;10.30;99.90;;;;;;5066072;28;20744;-68
2022/05/31 02:53:50;;;;;;;8.13;5.30;;;10.30;99.90;;;;;;5060915;28;20665;-68
2022/05/31 02:56:17;;;;;;;7.17;5.60;;;10.30;99.90;;;;;;5066664;28;20197;-68
2022/05/31 02:58:45;;;;;;;8.27;5.30;;;10.40;99.90;;;;;;5064161;28;20235;-68
2022/05/31 03:01:20;;;;;;;5.70;5.00;;;10.40;99.90;;;;;;5072397;28;20669;-68
2022/05/31 03:03:46;;;;;;;6.10;5.07;;;10.40;99.90;;;;;;5073900;28;20236;-68
2022/05/31 03:06:13;;;;;;;8.73;5.13;;;10.40;99.90;;;;;;5072678;28;20332;-67
2022/05/31 03:08:41;;;;;;;8.10;4.87;;;10.50;99.90;;;;;;5072706;28;20205;-68
2022/05/31 03:11:10;;;;;;;6.10;4.73;;;10.50;99.90;;;;;;5070121;28;20353;-68
2022/05/31 03:13:38;;;;;;;5.30;4.60;;;10.50;99.90;;;;;;5075448;28;20201;-67
2022/05/31 03:16:07;;;;;;;7.03;5.37;;;10.60;99.90;;;;;;5071374;28;20615;-68
2022/05/31 03:18:38;;;;;;;8.33;5.20;;;10.70;99.90;;;;;;5068077;28;20292;-68
2022/05/31 03:21:09;;;;;;;6.53;5.00;;;10.70;99.90;;;;;;5073650;28;20231;-67
2022/05/31 03:23:40;;;;;;;8.03;5.17;;;10.80;99.90;;;;;;5075851;28;20200;-67
2022/05/31 03:26:09;;;;;;;7.77;4.43;;;10.80;99.90;;;;;;5070096;28;20307;-68
2022/05/31 03:28:37;;;;;;;4.97;4.47;;;10.80;99.90;;;;;;5074716;28;20260;-68
2022/05/31 03:31:06;;;;;;;6.30;4.70;;;10.90;99.90;;;;;;5076717;28;20265;-68
2022/05/31 03:33:33;;;;;;;5.77;4.80;;;10.90;99.90;;;;;;5073677;28;20661;-69
2022/05/31 03:36:00;;;;;;;5.30;4.80;;;11.00;99.90;;;;;;5074406;28;20198;-67
2022/05/31 03:38:27;;;;;;;5.23;4.40;;;11.00;99.90;;;;;;5068247;28;20235;-67
2022/05/31 03:40:57;;;;;;;6.63;4.27;;;11.10;99.90;;;;;;5073877;28;20215;-67
2022/05/31 03:43:25;;;;;;;8.10;4.97;;;11.10;99.90;;;;;;5072270;28;20240;-68
2022/05/31 03:45:52;;;;;;;8.57;4.77;;;11.20;99.90;;;;;;5071229;28;20212;-69
2022/05/31 03:48:20;;;;;;;5.63;4.90;;;11.20;99.90;;;;;;5072176;28;20205;-67
2022/05/31 03:50:47;;;;;;;4.50;4.10;;;11.20;99.90;;;;;;5071367;28;20287;-68
2022/05/31 03:53:15;;;;;;;5.77;4.97;;;11.30;99.90;;;;;;5073532;28;20235;-69
2022/05/31 03:55:44;;;;;;;7.60;4.63;;;11.30;99.90;;;;;;5073458;28;20295;-68
2022/05/31 03:58:11;;;;;;;6.10;4.57;;;11.40;99.90;;;;;;5065429;28;20209;-68
2022/05/31 04:00:38;;;;;;;6.67;5.07;;;11.40;99.90;;;;;;5072641;28;20267;-68
2022/05/31 04:03:05;;;;;;;7.23;5.30;;;11.50;99.90;;;;;;5076033;28;20737;-69
2022/05/31 04:05:33;;;;;;;8.47;5.07;;;11.50;99.90;;;;;;5076391;28;20296;-68
2022/05/31 04:08:04;;;;;;;5.73;4.57;;;11.60;99.90;;;;;;5071597;28;20224;-68
2022/05/31 04:10:31;;;;;;;6.73;5.10;;;11.60;99.90;;;;;;5071163;28;20529;-68
2022/05/31 04:12:59;;;;;;;5.77;4.20;;;11.80;99.90;;;;;;5077265;28;20205;-68
2022/05/31 04:15:27;;;;;;;5.03;4.37;;;11.70;99.90;;;;;;5084568;28;20236;-69
2022/05/31 04:17:54;;;;;;;5.17;4.63;;;11.80;99.90;;;;;;5071708;28;20213;-69
2022/05/31 04:20:21;;;;;;;5.77;4.80;;;11.80;99.90;;;;;;5066108;28;20224;-68
2022/05/31 04:22:49;;;;;;;4.90;4.50;;;11.80;99.90;;;;;;5077490;28;20235;-68
2022/05/31 04:25:16;;;;;;;5.77;4.90;;;11.90;99.90;;;;;;5079563;28;20202;-69
2022/05/31 04:27:43;;;;;;;5.73;4.07;;;12.00;99.90;;;;;;5076277;28;20308;-68
2022/05/31 04:30:10;;;;;;;5.70;4.07;;;12.00;99.90;;;;;;5075693;28;20229;-68
2022/05/31 04:32:37;;;;;;;4.70;4.30;;;12.10;99.90;;;;;;5075659;28;20248;-69
2022/05/31 04:35:05;;;;;;;6.63;4.70;;;12.20;99.90;;;;;;5076331;28;20718;-69
2022/05/31 04:37:32;;;;;;;8.03;4.43;;;12.20;99.90;;;;;;5076667;28;20241;-68
2022/05/31 04:40:00;;;;;;;4.33;3.93;;;12.20;99.90;;;;;;5075442;28;20252;-68
2022/05/31 04:42:27;;;;;;;5.20;4.33;;;12.20;99.90;;;;;;5076483;28;20241;-68
2022/05/31 04:44:54;;;;;;;6.57;4.67;;;12.30;99.90;;;;;;5075573;28;20284;-69
2022/05/31 04:47:21;;;;;;;7.03;4.50;;;12.30;99.90;;;;;;5082074;28;20227;-68
2022/05/31 04:49:48;;;;;;;5.80;4.70;;;12.40;99.90;;;;;;5076878;28;20202;-68
2022/05/31 04:52:15;;;;;;;5.47;4.80;;;12.40;99.90;;;;;;5076354;28;20230;-68
2022/05/31 04:54:41;;;;;;;4.93;4.33;;;12.50;99.90;;;;;;5075939;28;20704;-68
2022/05/31 04:57:10;;;;;;;5.27;4.10;;;12.50;99.90;;;;;;5081694;28;20200;-68
2022/05/31 04:59:36;;;;;;;5.60;4.53;;;12.60;99.90;;;;;;5076561;28;20225;-68
2022/05/31 05:02:04;;;;;;;10.80;5.20;;;12.60;99.90;;;;;;5071898;28;20284;-69
2022/05/31 05:04:30;;;;;;;9.03;5.33;;;12.70;99.90;;;;;;5076183;28;20248;-69
2022/05/31 05:06:58;;;;;;;8.63;4.83;;;12.70;99.90;;;;;;5075955;28;20207;-67
2022/05/31 05:09:25;;;;;;;7.33;4.23;;;12.80;99.90;;;;;;5073990;28;20269;-68
2022/05/31 05:11:52;;;;;;;9.73;5.13;;;12.90;99.90;;;;;;5081187;28;20247;-68
2022/05/31 05:14:20;;;;;;;5.73;4.27;;;12.90;99.90;;;;;;5078834;28;20285;-67
2022/05/31 05:16:47;;;;;;;6.47;5.37;;;13.00;99.90;;;;;;5074623;28;20556;-68
2022/05/31 05:19:16;;;;;;;7.17;4.63;;;13.10;99.90;;;;;;5076618;28;20221;-68
2022/05/31 05:21:43;;;;;;;5.67;4.53;;;13.10;99.90;;;;;;5078046;28;20205;-69
2022/05/31 05:24:10;;;;;;;4.73;4.00;;;13.20;99.90;;;;;;5081339;28;20275;-68
2022/05/31 05:26:37;;;;;;;8.90;4.77;;;13.30;99.90;;;;;;5074147;28;20205;-68
2022/05/31 05:31:53;;;;;;;5.10;4.60;;;13.40;99.90;;;;;;5080432;28;20196;-69
2022/05/31 05:34:20;;;;;;;7.27;4.90;;;13.50;99.90;;;;;;5084797;28;20200;-68
2022/05/31 05:36:46;;;;;;;6.70;4.47;;;13.60;99.90;;;;;;5075313;28;20212;-67
2022/05/31 05:39:13;;;;;;;7.40;4.33;;;13.60;99.90;;;;;;5074351;28;20256;-68
2022/05/31 05:41:41;;;;;;;5.13;4.60;;;13.70;99.90;;;;;;5072337;28;20244;-69
2022/05/31 05:44:08;;;;;;;8.43;3.87;;;13.80;99.90;;;;;;5065760;28;20236;-69
2022/05/31 05:46:35;;;;;;;4.87;4.33;;;13.90;99.90;;;;;;5073761;28;20326;-68
2022/05/31 05:49:04;;;;;;;7.50;4.47;;;14.00;99.90;;;;;;5075172;28;20229;-68
2022/05/31 05:51:32;;;;;;;5.70;4.20;;;14.10;99.90;;;;;;5069826;28;20213;-68
2022/05/31 05:54:02;;;;;;;6.13;4.37;;;14.10;99.90;;;;;;5080275;28;20233;-69
2022/05/31 05:56:29;;;;;;;6.47;4.30;;;14.10;99.90;;;;;;5070002;28;20193;-68
2022/05/31 05:58:56;;;;;;;6.40;4.30;;;14.20;99.90;;;;;;5067493;28;20212;-69
2022/05/31 06:01:29;;;;;;;5.30;3.97;;;14.10;99.90;;;;;;5073762;28;20631;-69
2022/05/31 06:04:01;;;;;;;5.47;4.20;;;14.20;99.90;;;;;;5084266;28;20201;-69
2022/05/31 06:06:31;;;;;;;10.40;4.47;;;14.30;99.90;;;;;;5084176;28;20192;-69
2022/05/31 06:09:02;;;;;;;6.90;4.20;;;14.40;99.90;;;;;;5089512;28;20589;-68
2022/05/31 06:11:33;;;;;;;6.67;4.53;;;14.40;99.90;;;;;;5080706;28;20233;-68
2022/05/31 06:14:03;;;;;;;7.93;4.47;;;14.50;99.90;;;;;;5078888;28;20234;-69
2022/05/31 06:16:32;;;;;;;6.77;4.13;;;14.60;99.90;;;;;;5074219;28;20272;-68
2022/05/31 06:19:04;;;;;;;5.83;3.90;;;14.60;99.90;;;;;;5073061;28;20205;-68
2022/05/31 06:21:33;;;;;;;6.40;4.23;;;14.70;99.90;;;;;;5066054;28;20248;-69
2022/05/31 06:24:01;;;;;;;5.00;3.27;;;14.80;99.90;;;;;;5071117;28;20205;-68
2022/05/31 06:26:29;;;;;;;6.67;3.87;;;14.80;99.90;;;;;;5072335;28;20211;-69
2022/05/31 06:28:55;;;;;;;7.03;3.70;;;14.90;99.90;;;;;;5077038;28;20248;-69
2022/05/31 06:31:22;;;;;;;6.93;4.03;;;15.00;99.90;;;;;;5060147;28;20208;-70
2022/05/31 06:33:49;;;;;;;4.80;3.60;;;15.10;99.90;;;;;;5066277;28;20271;-71
2022/05/31 06:36:16;;;;;;;8.33;3.80;;;15.20;99.90;;;;;;5069185;28;20205;-71
2022/05/31 06:38:45;;;;;;;4.43;3.47;;;15.30;99.90;;;;;;5074272;28;20237;-70
2022/05/31 06:41:12;;;;;;;5.47;3.50;;;15.30;99.90;;;;;;5074012;28;20279;-73
2022/05/31 06:43:39;;;;;;;5.80;3.43;;;15.40;99.90;;;;;;5074157;28;20285;-73
2022/05/31 06:46:06;;;;;;;4.93;3.10;;;15.50;99.90;;;;;;5076947;28;20268;-73
2022/05/31 06:48:34;;;;;;;6.47;3.30;;;15.60;99.90;;;;;;5074254;28;20225;-72
2022/05/31 06:51:05;;;;;;;2.87;2.67;;;15.60;99.90;;;;;;5075517;28;20240;-72
2022/05/31 06:59:13;;;;;;;6.13;3.67;;;15.80;99.90;;;;;;5059579;28;20220;-71
2022/05/31 07:01:40;;;;;;;4.63;2.77;;;15.90;99.90;;;;;;5069308;28;20236;-68
2022/05/31 07:04:07;;;;;;;3.37;2.43;;;16.00;99.90;;;;;;5072235;28;20261;-68
2022/05/31 07:06:34;;;;;;;3.90;2.63;;;16.00;99.90;;;;;;5072121;28;20248;-68
2022/05/31 07:09:01;;;;;;;2.90;2.60;;;16.10;99.90;;;;;;5069944;28;20217;-66
2022/05/31 07:11:30;;;;;;;3.20;2.90;;;16.20;99.90;;;;;;5071731;28;20284;-68
2022/05/31 07:13:57;;;;;;;5.20;3.17;;;16.20;99.90;;;;;;5071222;28;20209;-67
2022/05/31 07:16:24;;;;;;;3.97;3.03;;;16.30;99.90;;;;;;5068176;28;20742;-69
2022/05/31 07:18:51;;;;;;;7.10;3.33;;;16.40;99.90;;;;;;5071660;28;20288;-67
2022/05/31 07:21:17;;;;;;;4.47;2.77;;;16.50;99.90;;;;;;5070748;28;20229;-68
2022/05/31 07:23:44;;;;;;;4.67;3.23;;;16.70;99.90;;;;;;5071300;28;20590;-68
2022/05/31 07:26:12;;;;;;;3.20;2.73;;;16.70;99.90;;;;;;5063275;28;20727;-68
2022/05/31 07:28:41;;;;;;;3.55;2.58;;;16.80;99.90;;;;;;5071669;28;20232;-69
2022/05/31 07:31:08;;;;;;;5.97;2.83;;;16.90;99.90;;;;;;5072092;28;20608;-67
2022/05/31 07:33:35;;;;;;;5.35;2.58;;;16.90;99.90;;;;;;5064030;28;20594;-68
2022/05/31 07:36:04;;;;;;;5.47;2.65;;;17.00;99.90;;;;;;5069782;28;20207;-68
2022/05/31 07:38:31;;;;;;;5.03;3.28;;;17.20;99.90;;;;;;5074649;28;20437;-67
2022/05/31 07:40:59;;;;;;;3.95;2.80;;;17.30;99.90;;;;;;5072817;28;20225;-69
2022/05/31 07:43:26;;;;;;;4.28;2.72;;;17.40;99.90;;;;;;5072500;28;20203;-70
2022/05/31 07:46:05;;;;;;;3.33;2.40;;;17.50;99.90;;;;;;5094430;28;20236;-70
2022/05/31 07:48:33;;;;;;;4.65;2.53;;;17.60;99.90;;;;;;5084569;28;20653;-69
2022/05/31 07:50:59;;;;;;;4.65;2.42;;;17.70;99.90;;;;;;5076662;28;20284;-71
2022/05/31 07:53:27;;;;;;;2.95;2.50;;;17.80;99.90;;;;;;5086902;28;20689;-69
2022/05/31 07:55:58;;;;;;;3.60;3.00;;;17.80;99.90;;;;;;5087760;28;20205;-71
2022/05/31 07:58:34;;;;;;;3.00;2.47;;;17.90;99.90;;;;;;5074670;28;20228;-68
2022/05/31 08:01:04;;;;;;;2.95;2.10;;;18.10;99.70;;;;;;5075034;28;20244;-72
2022/05/31 08:03:32;;;;;;;4.18;2.30;;;18.30;98.80;;;;;;5080376;28;20306;-72
2022/05/31 08:06:01;;;;;;;2.58;2.30;;;18.40;97.90;;;;;;5091413;28;20209;-71
2022/05/31 08:08:28;;;;;;;2.28;1.88;;;18.60;97.30;;;;;;5075907;28;20201;-72
2022/05/31 08:10:56;;;;;;;3.88;2.10;;;18.70;96.00;;;;;;5072042;28;20641;-72
2022/05/31 08:13:23;;;;;;;3.72;1.90;;;18.80;94.90;;;;;;5078510;28;20205;-72
2022/05/31 08:15:50;;;;;;;1.98;1.80;;;18.80;94.70;;;;;;5076754;28;20234;-71
2022/05/31 08:18:18;;;;;;;2.92;1.60;;;18.90;94.10;;;;;;5090133;28;20221;-72
2022/05/31 08:20:45;;;;;;;3.25;1.80;;;19.00;93.60;;;;;;5077784;28;20225;-72
2022/05/31 08:23:11;;;;;;;3.45;1.95;;;19.10;92.80;;;;;;5071029;28;20209;-71
2022/05/31 08:25:38;;;;;;;4.05;2.58;;;19.20;92.10;;;;;;5079085;28;20296;-71
2022/05/31 08:28:07;;;;;;;4.30;1.92;;;19.40;91.60;;;;;;5078927;28;20206;-72
2022/05/31 08:30:34;;;;;;;1.92;1.73;;;19.50;91.00;;;;;;5077063;28;20275;-72
2022/05/31 08:33:01;;;;;;;2.45;1.75;;;19.70;90.80;;;;;;5087844;28;20208;-74
2022/05/31 08:35:29;;;;;;;2.38;2.00;;;19.80;89.20;;;;;;5080159;28;20248;-69
2022/05/31 08:37:56;;;;;;;5.57;2.05;;;19.80;87.30;;;;;;5077139;28;20216;-71
2022/05/31 08:40:24;;;;;;;3.28;2.10;;;19.90;86.70;;;;;;5074568;28;20678;-70
2022/05/31 08:42:56;;;;;;;2.33;1.92;;;19.90;85.90;;;;;;5074310;28;20641;-70
2022/05/31 08:45:35;;;;;;;1.92;1.80;;;19.80;86.30;;;;;;5077502;28;20287;-70
2022/05/31 08:48:09;;;;;;;3.30;1.85;;;19.80;85.10;;;;;;5068897;28;20280;-71
2022/05/31 08:53:38;;;;;;;2.47;2.22;;;19.90;86.70;;;;;;5072981;28;20212;-70
2022/05/31 08:59:01;;;;;;;4.90;2.10;;;20.10;84.80;;;;;;5073574;28;20196;-69
2022/05/31 09:01:32;;;;;;;3.15;1.65;;;20.10;84.80;;;;;;5073172;28;20209;-69
2022/05/31 09:04:15;;;;;;;3.45;2.20;;;20.30;84.20;;;;;;5071530;28;20201;-70
2022/05/31 09:06:48;;;;;;;3.03;2.03;;;20.20;82.90;;;;;;5061802;28;20686;-71
2022/05/31 09:09:20;;;;;;;2.10;1.80;;;20.10;82.00;;;;;;5075966;28;20283;-70
2022/05/31 09:11:58;;;;;;;3.38;2.55;;;19.90;81.60;;;;;;5077934;28;20685;-70
2022/05/31 09:14:36;;;;;;;2.90;1.90;;;19.80;82.00;;;;;;5078601;28;20230;-71
2022/05/31 09:17:11;;;;;;;2.58;1.80;;;19.80;82.10;;;;;;5074251;28;20247;-70
2022/05/31 09:19:43;;;;;;;3.58;2.20;;;19.80;81.20;;;;;;5074811;28;20573;-69
2022/05/31 09:22:12;;;;;;;3.63;1.80;;;19.70;81.20;;;;;;5078003;28;20244;-71
2022/05/31 09:24:42;;;;;;;3.83;1.77;;;19.90;82.00;;;;;;5083249;28;20212;-70
2022/05/31 09:27:12;;;;;;;3.20;1.58;;;20.00;82.20;;;;;;5078077;28;20229;-71
2022/05/31 09:30:06;;;;;;;1.83;1.40;;;20.20;80.50;;;;;;5075468;28;20316;-69
2022/05/31 09:33:04;;;;;;;2.17;1.90;;;20.20;79.30;;;;;;5064956;28;20296;-70
2022/05/31 09:35:57;;;;;;;2.50;1.70;;;20.30;78.70;;;;;;5071953;28;20209;-69
2022/05/31 09:38:54;;;;;;;1.75;1.50;;;20.40;78.40;;;;;;5074008;28;20213;-71
2022/05/31 09:41:27;;;;;;;3.72;2.03;;;20.60;77.80;;;;;;5081818;28;20225;-69
2022/05/31 09:44:02;;;;;;;1.58;1.40;;;20.70;77.10;;;;;;5076000;28;20228;-69
2022/05/31 09:46:37;;;;;;;2.22;1.42;;;20.90;75.90;;;;;;5079548;28;20232;-70
2022/05/31 09:49:17;;;;;;;4.00;2.30;;;21.10;74.40;;;;;;5076225;28;20201;-70
2022/05/31 09:51:46;;;;;;;2.75;1.95;;;21.30;73.40;;;;;;5075794;28;20220;-70
2022/05/31 09:57:08;;;;;;;1.58;1.20;;;21.80;72.50;;;;;;5085054;28;20314;-72
2022/05/31 09:59:41;;;;;;;2.22;1.38;;;21.90;72.10;;;;;;5076121;28;20228;-70
2022/05/31 10:02:20;;;;;;;1.50;1.40;;;22.00;70.80;;;;;;5080333;28;20227;-69
2022/05/31 10:04:49;;;;;;;1.70;1.40;;;22.20;69.30;;;;;;5069440;28;20208;-69
2022/05/31 10:07:32;;;;;;;4.00;1.15;;;22.20;68.60;;;;;;5078201;28;20664;-69
2022/05/31 10:10:06;;;;;;;2.10;1.50;;;22.20;68.70;;;;;;5072027;28;20696;-69
2022/05/31 10:12:34;;;;;;;2.70;1.50;;;22.30;68.50;;;;;;5084185;28;20588;-71
2022/05/31 10:15:06;;;;;;;2.50;1.42;;;22.40;68.60;;;;;;5078868;28;20320;-69
2022/05/31 10:17:37;;;;;;;3.42;1.90;;;22.60;68.80;;;;;;5072679;28;20312;-68
2022/05/31 10:20:14;;;;;;;1.95;1.58;;;22.80;68.40;;;;;;5072629;28;20212;-70
2022/05/31 10:22:54;;;;;;;1.63;1.40;;;23.00;68.30;;;;;;5083452;28;20200;-70
2022/05/31 10:25:24;;;;;;;3.67;1.42;;;23.20;67.10;;;;;;5079147;28;20201;-69
2022/05/31 10:27:58;;;;;;;1.63;1.20;;;23.20;64.40;;;;;;5073660;28;20284;-70
2022/05/31 10:30:26;;;;;;;1.85;1.15;;;23.30;63.70;;;;;;5073960;28;20229;-70
2022/05/31 10:32:55;;;;;;;1.30;1.15;;;23.30;62.50;;;;;;5082844;28;20229;-71
2022/05/31 10:35:25;;;;;;;2.05;1.10;;;23.30;61.70;;;;;;5077935;28;20426;-69
2022/05/31 10:37:57;;;;;;;2.47;1.13;;;23.30;62.00;;;;;;5078065;28;20248;-70
2022/05/31 10:40:32;;;;;;;2.28;1.20;;;23.30;61.40;;;;;;5073152;28;20203;-69
2022/05/31 10:43:07;;;;;;;1.20;1.10;;;23.10;61.60;;;;;;5073396;28;20284;-72
2022/05/31 10:45:35;;;;;;;1.30;0.85;;;23.10;62.00;;;;;;5064006;28;20565;-69
2022/05/31 10:48:03;;;;;;;4.90;1.58;;;23.30;61.40;;;;;;5072870;28;20205;-69
2022/05/31 10:50:34;;;;;;;1.05;0.93;;;23.50;61.30;;;;;;5073199;28;20288;-69
2022/05/31 10:53:15;;;;;;;1.10;1.00;;;23.80;60.60;;;;;;5073794;28;20280;-69
2022/05/31 10:55:48;;;;;;;0.90;0.90;;;24.00;60.00;;;;;;5073688;28;20239;-70
2022/05/31 10:58:37;;;;;;;1.38;1.10;;;24.10;59.00;;;;;;5085408;28;20810;-69
2022/05/31 11:01:14;;;;;;;1.65;1.00;;;24.10;58.00;;;;;;5069780;28;20272;-70
2022/05/31 11:03:47;;;;;;;3.55;1.77;;;24.20;57.50;;;;;;5070415;28;20283;-70
2022/05/31 11:06:34;;;;;;;1.20;1.10;;;24.10;56.90;;;;;;5068735;28;20230;-70
2022/05/31 11:12:07;;;;;;;1.52;1.25;;;23.80;57.20;;;;;;5079359;28;20597;-68
2022/05/31 11:14:54;;;;;;;0.93;0.93;;;23.70;57.80;;;;;;5070505;28;20693;-68
2022/05/31 11:17:37;;;;;;;1.48;1.17;;;23.60;58.00;;;;;;5067600;28;20216;-69
2022/05/31 11:20:10;;;;;;;2.85;1.20;;;23.50;57.60;;;;;;5071141;28;20229;-71
2022/05/31 11:22:50;;;;;;;1.60;1.50;;;23.40;57.50;;;;;;5080490;28;20235;-70
2022/05/31 11:25:42;;;;;;;2.63;1.40;;;23.30;57.40;;;;;;5074315;28;20675;-71
2022/05/31 11:28:42;;;;;;;3.03;1.98;;;23.20;57.40;;;;;;5068030;28;20216;-70
2022/05/31 11:31:21;;;;;;;1.45;1.30;;;23.10;57.80;;;;;;5079563;28;20283;-70
2022/05/31 11:34:15;;;;;;;1.02;0.90;;;23.10;58.00;;;;;;5072463;28;20197;-70
2022/05/31 11:37:01;;;;;;;1.00;0.88;;;23.20;57.30;;;;;;5073052;28;20197;-69
2022/05/31 11:39:44;;;;;;;2.80;1.67;;;23.20;56.30;;;;;;5068364;28;20196;-68
2022/05/31 11:42:27;;;;;;;2.55;1.10;;;22.90;56.10;;;;;;5068913;28;20209;-68
2022/05/31 11:45:11;;;;;;;1.58;1.10;;;22.80;56.70;;;;;;5071157;28;20255;-68
2022/05/31 11:48:13;;;;;;;2.00;1.10;;;22.70;56.90;;;;;;5070839;28;20288;-71
2022/05/31 11:50:48;;;;;;;1.55;1.10;;;22.70;57.30;;;;;;5079796;28;20217;-70
2022/05/31 11:53:45;;;;;;;1.23;1.10;;;22.70;56.90;;;;;;5079259;28;20196;-70
2022/05/31 11:56:18;;;;;;;1.75;1.08;;;22.60;57.10;;;;;;5024454;28;20211;-70
2022/05/31 11:58:51;;;;;;;1.67;1.05;;;22.50;57.30;;;;;;5084767;28;20284;-69
2022/05/31 12:01:23;;;;;;;1.45;1.35;;;22.60;57.50;;;;;;5085169;28;20582;-69
2022/05/31 12:04:02;;;;;;;2.13;1.42;;;22.50;57.40;;;;;;5083642;28;20196;-69
2022/05/31 12:06:38;;;;;;;4.15;1.00;;;22.60;57.80;;;;;;5073364;28;20228;-72
2022/05/31 12:09:14;;;;;;;4.40;1.48;;;22.70;57.90;;;;;;5076529;28;20251;-71
2022/05/31 12:11:46;;;;;;;4.47;1.55;;;22.70;57.60;;;;;;5065058;28;20231;-69
2022/05/31 12:14:14;;;;;;;1.77;1.50;;;22.70;57.70;;;;;;5068501;28;20292;-71
2022/05/31 12:16:43;;;;;;;1.50;1.38;;;22.80;58.00;;;;;;5076575;28;20268;-71
2022/05/31 12:19:23;;;;;;;1.17;1.08;;;23.00;57.20;;;;;;5087319;28;20208;-67
2022/05/31 12:21:55;;;;;;;2.50;1.05;;;23.20;56.40;;;;;;5068614;28;20209;-68
2022/05/31 12:24:26;;;;;;;1.88;1.20;;;23.50;55.80;;;;;;5077712;28;20255;-67
2022/05/31 12:26:57;;;;;;;0.85;0.85;;;23.60;55.40;;;;;;5080782;28;20204;-67
2022/05/31 12:29:29;;;;;;;1.33;1.23;;;23.90;55.40;;;;;;5076750;28;20233;-69
2022/05/31 12:32:26;;;;;;;1.20;1.10;;;24.20;54.80;;;;;;5070151;28;20284;-69
2022/05/31 12:34:54;;;;;;;1.25;0.95;;;24.30;54.40;;;;;;5071377;28;20216;-69
2022/05/31 12:37:21;;;;;;;0.95;0.82;;;24.50;53.90;;;;;;5071991;28;20209;-68
2022/05/31 12:39:50;;;;;;;0.98;0.90;;;24.40;51.90;;;;;;5069604;28;20229;-68
2022/05/31 12:42:40;;;;;;;1.10;0.77;;;24.40;51.70;;;;;;5072842;28;20229;-69
2022/05/31 12:45:20;;;;;;;1.17;0.93;;;24.30;51.70;;;;;;5060208;28;20245;-69
2022/05/31 12:47:55;;;;;;;1.13;0.80;;;24.30;51.70;;;;;;5062883;28;20661;-70
2022/05/31 12:50:46;;;;;;;1.60;1.17;;;24.20;51.70;;;;;;5062686;28;20208;-71
2022/05/31 12:53:23;;;;;;;1.30;1.20;;;24.30;51.90;;;;;;5065979;28;20208;-70
2022/05/31 12:55:58;;;;;;;1.40;1.00;;;24.30;52.10;;;;;;5072314;28;20574;-70
2022/05/31 12:58:50;;;;;;;3.55;1.40;;;24.30;52.20;;;;;;5076149;28;20223;-70
2022/05/31 13:01:46;;;;;;;1.05;0.95;;;24.20;52.30;;;;;;5068701;28;20717;-69
2022/05/31 13:04:25;;;;;;;2.60;1.58;;;24.10;51.90;;;;;;5047774;28;20237;-70
2022/05/31 13:07:07;;;;;;;1.45;1.17;;;23.90;51.80;;;;;;5072496;28;20696;-71
2022/05/31 13:09:37;;;;;;;2.08;1.17;;;23.70;51.80;;;;;;5065134;28;20662;-70
2022/05/31 13:20:34;;;;;;;3.35;1.10;;;24.10;52.30;;;;;;5077412;28;20204;-70
2022/05/31 13:23:09;;;;;;;1.35;1.05;;;24.10;51.70;;;;;;5080284;28;20639;-70
2022/05/31 13:25:43;;;;;;;1.70;1.10;;;24.20;51.60;;;;;;5082179;28;20261;-70
2022/05/31 13:28:23;;;;;;;2.85;1.02;;;24.30;51.00;;;;;;5073720;28;20638;-69
2022/05/31 13:30:50;;;;;;;3.40;0.85;;;24.30;50.00;;;;;;5078739;28;20274;-70
2022/05/31 13:33:20;;;;;;;1.67;0.95;;;24.40;50.90;;;;;;5084802;28;20202;-70
2022/05/31 13:35:57;;;;;;;1.65;1.17;;;24.60;51.10;;;;;;5075085;28;20245;-71